Time;durP1;ratioP1;P1;durP2;ratioP2;P2;SDS_P1;SDS_P2;PMS_P1;PMS_P2;Temp;Humidity;BMP_temperature;BMP_pressure;BME280_temperature;BME280_humidity;BME280_pressure;Samples;Min_cycle;Max_cycle;Signal;HPM_P1;HPM_P2
2023/09/16 00:01:59;;;;;;;1.60;1.50;;;;;;;17.49;57.30;98811.19;4997976;28;42373;-82
2023/09/16 00:04:26;;;;;;;1.10;1.00;;;;;;;17.48;56.91;98804.16;4997753;28;41460;-78
2023/09/16 00:06:56;;;;;;;1.37;1.27;;;;;;;17.47;57.30;98802.47;5032123;28;42374;-79
2023/09/16 00:09:24;;;;;;;2.10;1.23;;;;;;;17.47;57.63;98807.81;5013756;28;41506;-77
2023/09/16 00:11:51;;;;;;;1.90;1.73;;;;;;;17.37;57.57;98796.25;5013875;28;41865;-80
2023/09/16 00:14:21;;;;;;;1.87;1.57;;;;;;;17.44;57.62;98816.13;4998274;28;44055;-76
2023/09/16 00:16:49;;;;;;;2.00;1.83;;;;;;;17.43;57.50;98814.47;4998685;28;41207;-82
2023/09/16 00:19:17;;;;;;;1.77;1.67;;;;;;;17.42;57.60;98816.28;5014680;28;40982;-81
2023/09/16 00:21:45;;;;;;;2.53;1.50;;;;;;;17.41;57.76;98814.59;4998270;28;41546;-79
2023/09/16 00:24:14;;;;;;;1.70;1.60;;;;;;;17.38;58.17;98814.88;4998112;28;42780;-76
2023/09/16 00:26:42;;;;;;;1.87;1.40;;;;;;;17.28;57.60;98805.97;5032130;28;43488;-78
2023/09/16 00:29:10;;;;;;;1.60;1.50;;;;;;;17.17;57.67;98798.94;5014849;28;40734;-80
2023/09/16 00:31:38;;;;;;;1.80;1.27;;;;;;;17.28;57.91;98814.00;5015061;28;42483;-80
2023/09/16 00:34:06;;;;;;;1.53;1.43;;;;;;;17.23;58.25;98816.25;5032173;28;42705;-82
2023/09/16 00:36:33;;;;;;;2.03;1.70;;;;;;;17.12;59.22;98797.66;5032200;28;42950;-78
2023/09/16 00:39:01;;;;;;;1.83;1.50;;;;;;;17.11;59.30;98802.16;4997808;28;39655;-78
2023/09/16 00:41:30;;;;;;;1.80;1.67;;;;;;;17.11;59.04;98806.66;4997523;28;40701;-79
2023/09/16 00:43:57;;;;;;;1.80;1.30;;;;;;;16.98;59.05;98795.34;5030003;28;42585;-81
2023/09/16 00:46:25;;;;;;;1.80;1.60;;;;;;;17.07;59.16;98813.25;5013611;28;41078;-80
2023/09/16 00:48:52;;;;;;;1.50;1.40;;;;;;;16.98;59.10;98795.34;5013430;28;41047;-83
2023/09/16 00:51:21;;;;;;;1.40;1.30;;;;;;;17.06;59.00;98815.06;4997038;28;40698;-82
2023/09/16 00:53:50;;;;;;;2.37;1.57;;;;;;;17.06;59.28;98814.25;5013030;28;42857;-79
2023/09/16 00:56:18;;;;;;;1.33;1.13;;;;;;;17.01;59.22;98806.63;4996833;28;41263;-79
2023/09/16 00:58:47;;;;;;;1.67;1.57;;;;;;;16.97;59.49;98809.72;5013245;28;41804;-79
2023/09/16 01:01:17;;;;;;;2.60;2.10;;;;;;;16.95;59.12;98811.69;4997012;28;41723;-78
2023/09/16 01:03:44;;;;;;;2.90;1.60;;;;;;;16.91;59.76;98810.28;5012800;28;42803;-81
2023/09/16 01:06:16;;;;;;;1.40;1.30;;;;;;;16.88;60.11;98806.88;5013375;28;42345;-80
2023/09/16 01:08:46;;;;;;;2.00;1.60;;;;;;;16.86;60.14;98803.50;4996743;28;40997;-79
2023/09/16 01:11:13;;;;;;;2.50;2.03;;;;;;;16.85;60.03;98796.44;4996795;28;40624;-79
2023/09/16 01:13:41;;;;;;;1.93;1.73;;;;;;;16.85;60.20;98801.81;5013768;28;42877;-78
2023/09/16 01:16:18;;;;;;;1.90;1.60;;;;;;;16.84;60.17;98800.09;5013927;28;41487;-76
2023/09/16 01:18:52;;;;;;;1.67;1.57;;;;;;;16.82;60.06;98799.38;5012183;28;40765;-82
2023/09/16 01:21:22;;;;;;;2.00;1.80;;;;;;;16.76;60.24;98789.25;4997773;28;40832;-78
2023/09/16 01:23:50;;;;;;;1.50;1.40;;;;;;;16.76;60.40;98796.44;4997178;28;43086;-81
2023/09/16 01:26:19;;;;;;;1.70;1.57;;;;;;;16.73;60.71;98792.19;5013977;28;42549;-81
2023/09/16 01:28:46;;;;;;;2.30;2.10;;;;;;;16.70;61.09;98789.78;5013913;28;41676;-80
2023/09/16 01:31:14;;;;;;;2.17;1.80;;;;;;;16.68;61.50;98788.25;5013896;28;41790;-80
2023/09/16 01:33:49;;;;;;;2.03;1.70;;;;;;;16.54;61.67;98768.06;4997063;28;41953;-80
2023/09/16 01:36:24;;;;;;;2.40;2.20;;;;;;;16.66;62.18;98783.03;5010900;28;42375;-82
2023/09/16 01:38:59;;;;;;;1.83;1.70;;;;;;;16.65;62.60;98778.66;4996994;28;40899;-80
2023/09/16 01:41:29;;;;;;;2.10;2.00;;;;;;;16.65;62.40;98783.16;4996565;28;41661;-80
2023/09/16 01:43:57;;;;;;;2.17;1.70;;;;;;;16.50;62.21;98755.94;4995557;28;42047;-79
2023/09/16 01:46:25;;;;;;;3.10;2.03;;;;;;;16.62;63.26;98784.28;4996364;28;41289;-79
2023/09/16 01:48:53;;;;;;;3.47;2.00;;;;;;;16.62;63.72;98780.72;5012721;28;41137;-80
2023/09/16 01:51:20;;;;;;;2.90;2.50;;;;;;;16.61;63.50;98774.53;4996364;28;42154;-80
2023/09/16 01:53:48;;;;;;;2.47;2.27;;;;;;;16.61;64.55;98774.53;4996110;28;41655;-78
2023/09/16 01:56:15;;;;;;;2.43;2.23;;;;;;;16.60;64.66;98764.81;4995924;28;42281;-81
2023/09/16 01:58:44;;;;;;;2.63;2.37;;;;;;;16.60;64.99;98763.97;4996198;28;40327;-78
2023/09/16 02:01:12;;;;;;;1.93;1.73;;;;;;;16.60;64.84;98774.66;5012524;28;42702;-81
2023/09/16 02:03:39;;;;;;;2.57;2.37;;;;;;;16.59;64.55;98781.84;5030099;28;43270;-78
2023/09/16 02:06:07;;;;;;;2.50;2.20;;;;;;;16.58;65.05;98787.31;5012628;28;42432;-78
2023/09/16 02:08:35;;;;;;;2.40;2.07;;;;;;;16.56;64.47;98781.28;4996186;28;39951;-81
2023/09/16 02:11:04;;;;;;;2.27;2.03;;;;;;;16.54;63.79;98786.75;4996023;28;42037;-77
2023/09/16 02:13:32;;;;;;;2.67;1.77;;;;;;;16.53;63.63;98790.41;4996209;28;41437;-80
2023/09/16 02:16:01;;;;;;;2.10;1.90;;;;;;;16.50;63.67;98796.03;4998299;28;41284;-77
2023/09/16 02:18:30;;;;;;;2.03;1.83;;;;;;;16.43;63.36;98794.88;4999978;28;40966;-77
2023/09/16 02:20:58;;;;;;;2.30;2.10;;;;;;;16.39;63.12;98799.63;5000064;28;41738;-78
2023/09/16 02:23:26;;;;;;;1.70;1.60;;;;;;;16.36;63.25;98799.06;5033962;28;43830;-81
2023/09/16 02:25:54;;;;;;;2.03;1.93;;;;;;;16.31;63.20;98801.31;5016528;28;42376;-80
2023/09/16 02:28:20;;;;;;;2.40;1.90;;;;;;;16.28;63.30;98805.06;5016685;28;40827;-78
2023/09/16 02:30:49;;;;;;;1.97;1.77;;;;;;;16.26;62.97;98811.53;5016705;28;40674;-77
2023/09/16 02:33:18;;;;;;;2.00;1.90;;;;;;;16.22;63.35;98812.75;5016037;28;43805;-81
2023/09/16 02:35:45;;;;;;;2.97;2.00;;;;;;;16.22;63.21;98812.75;4999848;28;42230;-77
2023/09/16 02:38:13;;;;;;;1.90;1.80;;;;;;;16.21;63.26;98816.41;5016557;28;41009;-77
2023/09/16 02:40:41;;;;;;;1.93;1.73;;;;;;;16.20;63.58;98812.03;5016154;28;41596;-78
2023/09/16 02:43:09;;;;;;;2.17;1.97;;;;;;;16.20;63.70;98820.06;5007222;28;41705;-79
2023/09/16 02:45:40;;;;;;;2.80;2.50;;;;;;;16.20;63.73;98820.06;5010343;28;42812;-79
2023/09/16 02:48:08;;;;;;;2.07;1.87;;;;;;;16.19;64.87;98807.72;4998687;28;39817;-82
2023/09/16 02:50:38;;;;;;;2.87;1.90;;;;;;;16.14;64.63;98797.41;4998367;28;41246;-78
2023/09/16 02:53:06;;;;;;;3.20;2.57;;;;;;;16.19;64.72;98802.34;4998334;28;43121;-81
2023/09/16 02:55:34;;;;;;;2.87;2.47;;;;;;;16.17;65.42;98800.66;5014873;28;42040;-80
2023/09/16 02:58:02;;;;;;;2.30;1.80;;;;;;;16.16;65.26;98801.63;5014962;28;41887;-79
2023/09/16 03:00:30;;;;;;;2.97;2.67;;;;;;;16.15;65.36;98802.63;4998713;28;40382;-80
2023/09/16 03:02:59;;;;;;;2.47;1.90;;;;;;;16.06;65.25;98786.53;4998498;28;41773;-79
2023/09/16 03:05:26;;;;;;;2.93;2.27;;;;;;;16.15;65.73;98804.44;4998126;28;42269;-80
2023/09/16 03:07:56;;;;;;;2.60;2.33;;;;;;;16.13;65.79;98807.25;4998411;28;40981;-79
2023/09/16 03:10:23;;;;;;;2.43;2.20;;;;;;;16.00;66.42;98781.72;5014842;28;42538;-78
2023/09/16 03:12:52;;;;;;;3.00;2.37;;;;;;;16.09;65.98;98791.59;4998729;28;41790;-79
2023/09/16 03:15:21;;;;;;;2.43;2.23;;;;;;;16.04;66.22;98784.00;5015593;28;41283;-82
2023/09/16 03:17:48;;;;;;;6.13;2.50;;;;;;;16.11;66.84;98793.16;5015633;28;41935;-80
2023/09/16 03:20:16;;;;;;;2.23;2.10;;;;;;;16.12;66.48;98791.34;4998843;28;41468;-81
2023/09/16 03:22:43;;;;;;;2.40;2.20;;;;;;;16.10;66.18;98799.47;4999408;28;43281;-78
2023/09/16 03:25:12;;;;;;;3.40;2.00;;;;;;;16.10;66.08;98796.81;4999046;28;42521;-81
2023/09/16 03:27:40;;;;;;;3.17;2.53;;;;;;;16.09;66.60;98797.78;4997892;28;39841;-81
2023/09/16 03:30:09;;;;;;;2.43;2.23;;;;;;;16.10;66.16;98796.81;5015415;28;42765;-81
2023/09/16 03:32:39;;;;;;;2.47;2.20;;;;;;;16.09;66.66;98794.25;4999192;28;41680;-77
2023/09/16 03:35:07;;;;;;;2.50;2.30;;;;;;;16.10;66.62;98793.28;4998732;28;40738;-80
2023/09/16 03:37:35;;;;;;;2.40;2.20;;;;;;;16.08;66.84;98780.06;4999097;28;39958;-81
2023/09/16 03:40:06;;;;;;;2.97;2.00;;;;;;;16.08;66.72;98784.56;4998297;28;41776;-81
2023/09/16 03:42:35;;;;;;;2.63;2.43;;;;;;;16.07;67.44;98777.56;4997217;28;42995;-79
2023/09/16 03:45:03;;;;;;;3.70;3.03;;;;;;;16.05;67.45;98780.34;4997645;28;41498;-82
2023/09/16 03:47:31;;;;;;;2.63;2.30;;;;;;;16.04;67.47;98778.66;4997942;28;40056;-78
2023/09/16 03:49:58;;;;;;;3.77;2.47;;;;;;;16.02;67.63;98782.44;4997562;28;40981;-81
2023/09/16 03:52:27;;;;;;;3.13;2.50;;;;;;;16.00;67.90;98779.03;5014749;28;42764;-80
2023/09/16 03:54:55;;;;;;;3.00;2.30;;;;;;;15.98;67.57;98768.47;5013956;28;43002;-77
2023/09/16 03:57:23;;;;;;;3.03;2.30;;;;;;;15.97;67.97;98769.44;4997462;28;39936;-81
2023/09/16 03:59:53;;;;;;;2.33;2.13;;;;;;;15.96;67.94;98769.59;5014297;28;41476;-80
2023/09/16 04:02:21;;;;;;;2.67;2.40;;;;;;;15.93;68.80;98770.72;4997656;28;42861;-83
2023/09/16 04:04:48;;;;;;;2.37;2.17;;;;;;;15.92;68.81;98771.69;5014021;28;43043;-80
2023/09/16 04:07:16;;;;;;;2.77;2.53;;;;;;;15.90;68.79;98773.66;4997579;28;39893;-77
2023/09/16 04:09:44;;;;;;;2.70;2.50;;;;;;;15.89;68.37;98773.78;5013859;28;42793;-77
2023/09/16 04:12:11;;;;;;;3.43;2.33;;;;;;;15.86;68.97;98774.88;4997508;28;41671;-80
2023/09/16 04:14:38;;;;;;;2.63;2.23;;;;;;;15.86;68.67;98768.69;5014792;28;42209;-82
2023/09/16 04:17:07;;;;;;;2.57;2.37;;;;;;;15.86;68.39;98784.72;5014764;28;39945;-80
2023/09/16 04:19:35;;;;;;;2.53;2.23;;;;;;;15.83;69.51;98775.13;4998328;28;40778;-82
2023/09/16 04:22:03;;;;;;;3.20;2.90;;;;;;;15.82;68.74;98778.81;4998283;28;43376;-81
2023/09/16 04:24:31;;;;;;;2.43;2.17;;;;;;;15.76;68.42;98773.97;4998051;28;41344;-80
2023/09/16 04:27:00;;;;;;;2.40;2.20;;;;;;;15.80;68.13;98778.09;4998212;28;40076;-81
2023/09/16 04:29:28;;;;;;;2.93;2.33;;;;;;;15.67;68.28;98764.94;5006883;28;42576;-77
2023/09/16 04:31:56;;;;;;;2.70;2.40;;;;;;;15.77;67.84;98786.34;5014655;28;42853;-80
2023/09/16 04:34:25;;;;;;;2.60;2.40;;;;;;;15.76;67.72;98795.34;4997823;28;41435;-79
2023/09/16 04:36:54;;;;;;;3.17;2.67;;;;;;;15.66;68.29;98787.25;5014590;28;41691;-78
2023/09/16 04:39:23;;;;;;;2.00;1.80;;;;;;;15.74;68.04;98794.59;4996935;28;40921;-81
2023/09/16 04:41:53;;;;;;;2.33;2.03;;;;;;;15.74;68.20;98799.94;4997083;28;42748;-79
2023/09/16 04:44:21;;;;;;;3.37;2.20;;;;;;;15.72;67.93;98800.06;5013012;28;41814;-80
2023/09/16 04:46:53;;;;;;;2.50;2.00;;;;;;;15.61;67.63;98788.59;4997011;28;40177;-80
2023/09/16 04:49:21;;;;;;;2.50;2.30;;;;;;;15.69;67.94;98802.19;5012209;28;41805;-78
2023/09/16 04:51:50;;;;;;;2.40;2.20;;;;;;;15.68;68.02;98804.00;5030886;28;43513;-79
2023/09/16 04:54:17;;;;;;;3.83;2.40;;;;;;;15.65;68.09;98788.22;4996164;28;41487;-80
2023/09/16 04:56:45;;;;;;;2.50;2.30;;;;;;;15.67;68.15;98785.44;4996496;28;41220;-78
2023/09/16 04:59:12;;;;;;;2.30;2.10;;;;;;;15.67;68.37;98785.44;4996313;28;40948;-82
2023/09/16 05:01:40;;;;;;;2.50;2.30;;;;;;;15.66;68.21;98789.06;4996317;28;41700;-80
2023/09/16 05:04:07;;;;;;;2.67;2.40;;;;;;;15.67;68.58;98798.78;4996078;28;42026;-80
2023/09/16 05:06:35;;;;;;;3.70;2.70;;;;;;;15.65;68.06;98788.22;5012907;28;41180;-80
2023/09/16 05:09:05;;;;;;;2.70;2.20;;;;;;;15.69;68.12;98794.16;4996366;28;42138;-82
2023/09/16 05:11:33;;;;;;;2.97;2.53;;;;;;;15.69;68.10;98794.16;5012781;28;42912;-78
2023/09/16 05:14:03;;;;;;;2.30;2.10;;;;;;;15.71;68.14;98786.84;5013592;28;43095;-82
2023/09/16 05:16:31;;;;;;;2.33;2.13;;;;;;;15.71;68.17;98786.84;4997287;28;40974;-78
2023/09/16 05:19:03;;;;;;;3.07;2.60;;;;;;;15.56;68.55;98766.81;4997234;28;41761;-77
2023/09/16 05:21:31;;;;;;;2.63;2.43;;;;;;;15.73;68.36;98785.75;5013336;28;41777;-78
2023/09/16 05:23:58;;;;;;;2.60;2.20;;;;;;;15.64;68.21;98767.00;5013303;28;41477;-77
2023/09/16 05:26:29;;;;;;;2.97;2.07;;;;;;;15.76;68.42;98784.66;4997129;28;40001;-79
2023/09/16 05:28:57;;;;;;;3.97;3.00;;;;;;;15.66;68.81;98765.91;5013579;28;41976;-82
2023/09/16 05:31:27;;;;;;;3.57;2.60;;;;;;;15.78;68.76;98783.53;5013706;28;43374;-82
2023/09/16 05:33:55;;;;;;;2.23;2.03;;;;;;;15.71;68.86;98768.16;4996953;28;41291;-80
2023/09/16 05:36:24;;;;;;;3.43;2.87;;;;;;;15.83;68.72;98780.47;5013602;28;41688;-82
2023/09/16 05:38:52;;;;;;;2.60;2.30;;;;;;;15.86;68.24;98784.72;4996283;28;41239;-79
2023/09/16 05:41:19;;;;;;;3.00;2.20;;;;;;;15.88;68.33;98783.59;5009945;28;43725;-80
2023/09/16 05:43:49;;;;;;;2.80;2.40;;;;;;;15.91;68.42;98783.34;5011295;28;42374;-80
2023/09/16 05:46:16;;;;;;;4.13;2.50;;;;;;;15.94;67.89;98783.09;5012357;28;41897;-81
2023/09/16 05:48:44;;;;;;;3.27;2.63;;;;;;;15.98;68.23;98784.50;4995685;28;41195;-79
2023/09/16 05:51:12;;;;;;;2.83;2.50;;;;;;;16.02;68.04;98779.75;4997839;28;41812;-80
2023/09/16 05:53:39;;;;;;;3.30;2.60;;;;;;;16.07;67.84;98778.38;5015293;28;42194;-79
2023/09/16 05:56:08;;;;;;;3.00;2.70;;;;;;;16.08;67.76;98774.72;4999117;28;41130;-80
2023/09/16 05:58:41;;;;;;;3.00;2.70;;;;;;;16.20;68.51;98783.50;4999623;28;40483;-77
2023/09/16 06:01:10;;;;;;;2.60;2.37;;;;;;;16.20;68.29;98777.31;5001726;28;41910;-76
2023/09/16 06:03:37;;;;;;;2.43;2.23;;;;;;;16.34;68.30;98788.50;5010876;28;41990;-77
2023/09/16 06:06:05;;;;;;;2.83;2.53;;;;;;;16.33;68.29;98761.91;5021467;28;39937;-81
2023/09/16 06:08:33;;;;;;;2.50;2.30;;;;;;;16.45;68.04;98760.81;4998926;28;42073;-78
2023/09/16 06:11:01;;;;;;;3.03;2.50;;;;;;;16.60;68.08;98762.16;5015390;28;42868;-77
2023/09/16 06:13:29;;;;;;;2.80;2.60;;;;;;;16.79;67.78;98775.63;5015932;28;42755;-76
2023/09/16 06:15:56;;;;;;;3.40;2.67;;;;;;;16.94;67.72;98777.91;5033874;28;40976;-79
2023/09/16 06:18:27;;;;;;;2.87;2.60;;;;;;;17.08;67.15;98780.16;5016059;28;44279;-80
2023/09/16 06:20:55;;;;;;;4.27;2.50;;;;;;;17.26;66.72;98783.84;5016135;28;43767;-79
2023/09/16 06:23:25;;;;;;;2.33;2.07;;;;;;;17.36;66.41;98768.66;5014207;28;43267;-78
2023/09/16 06:25:53;;;;;;;2.60;2.37;;;;;;;17.59;66.15;98783.44;4998867;28;39802;-81
2023/09/16 06:28:21;;;;;;;2.70;2.50;;;;;;;17.72;66.09;98780.50;5014852;28;41852;-79
2023/09/16 06:30:49;;;;;;;2.80;2.50;;;;;;;17.85;66.15;98777.50;4998936;28;41588;-81
2023/09/16 06:33:16;;;;;;;2.40;2.20;;;;;;;17.98;65.56;98780.75;4998755;28;41616;-80
2023/09/16 06:35:46;;;;;;;3.57;3.03;;;;;;;18.08;65.71;98770.84;4998632;28;39737;-81
2023/09/16 06:38:13;;;;;;;2.90;2.57;;;;;;;18.16;65.40;98767.44;5014790;28;41710;-81
2023/09/16 06:40:41;;;;;;;2.80;2.60;;;;;;;18.42;65.23;98781.88;4997995;28;42125;-78
2023/09/16 06:43:08;;;;;;;2.10;1.90;;;;;;;18.58;64.52;98778.59;5015024;28;43032;-80
2023/09/16 06:45:40;;;;;;;2.30;2.10;;;;;;;18.76;64.45;98776.81;4998815;28;39810;-80
2023/09/16 06:48:08;;;;;;;2.37;2.17;;;;;;;18.84;64.23;98759.97;5032587;28;42586;-77
2023/09/16 06:50:36;;;;;;;2.40;2.20;;;;;;;19.12;63.35;98777.72;5015179;28;41829;-78
2023/09/16 06:53:04;;;;;;;2.63;2.43;;;;;;;19.33;62.89;98782.78;5014460;28;41066;-81
2023/09/16 06:55:32;;;;;;;3.97;2.03;;;;;;;19.59;62.50;98777.53;5032420;28;41070;-81
2023/09/16 06:58:04;;;;;;;2.73;2.43;;;;;;;19.77;61.74;98775.69;5032614;28;42484;-80
2023/09/16 07:00:31;;;;;;;3.03;2.70;;;;;;;20.09;61.10;98788.50;4991496;28;41986;-78
2023/09/16 07:02:59;;;;;;;2.50;2.30;;;;;;;20.41;60.87;98791.44;5014589;28;42745;-78
2023/09/16 07:05:29;;;;;;;2.50;2.30;;;;;;;21.13;59.10;98790.06;5014923;28;41499;-79
2023/09/16 07:07:56;;;;;;;2.50;2.30;;;;;;;22.39;55.67;98799.56;4998189;28;40349;-80
2023/09/16 07:10:25;;;;;;;2.53;2.33;;;;;;;23.44;52.98;98817.22;4997958;28;42204;-83
2023/09/16 07:12:53;;;;;;;3.20;2.63;;;;;;;24.10;51.50;98823.03;4998893;28;41658;-79
2023/09/16 07:15:22;;;;;;;2.43;2.17;;;;;;;24.48;51.17;98821.97;4999032;28;39725;-77
2023/09/16 07:17:49;;;;;;;2.70;2.50;;;;;;;24.64;50.54;98820.97;5015496;28;42374;-80
2023/09/16 07:20:17;;;;;;;2.43;2.23;;;;;;;24.73;50.15;98822.56;5032989;28;43674;-82
2023/09/16 07:22:44;;;;;;;2.37;2.17;;;;;;;24.88;49.70;98822.56;5015413;28;42072;-78
2023/09/16 07:25:12;;;;;;;2.53;2.33;;;;;;;25.19;49.26;98825.09;5015262;28;39741;-83
2023/09/16 07:27:40;;;;;;;2.47;2.27;;;;;;;25.36;48.66;98827.38;5015251;28;40752;-78
2023/09/16 07:30:09;;;;;;;2.67;2.47;;;;;;;25.48;47.66;98845.84;4998647;28;41992;-81
2023/09/16 07:32:37;;;;;;;2.60;2.40;;;;;;;25.38;48.13;98792.78;5015895;28;42411;-78
2023/09/16 07:35:05;;;;;;;3.50;2.50;;;;;;;26.24;46.49;98841.63;4998885;28;39911;-79
2023/09/16 07:37:33;;;;;;;2.60;2.40;;;;;;;26.94;44.38;98854.34;4998785;28;41056;-80
2023/09/16 07:40:00;;;;;;;2.53;2.33;;;;;;;27.51;43.87;98862.97;5015286;28;42015;-78
2023/09/16 07:42:32;;;;;;;4.13;2.40;;;;;;;28.11;43.06;98874.84;4998537;28;20882;-79
2023/09/16 07:45:01;;;;;;;2.73;2.53;;;;;;;28.86;41.95;98873.63;5031187;28;40842;-80
2023/09/16 07:47:28;;;;;;;2.60;2.40;;;;;;;29.92;39.64;98867.78;4997466;28;41548;-79
2023/09/16 07:49:56;;;;;;;3.37;2.40;;;;;;;31.83;37.11;98865.94;5013967;28;41995;-79
2023/09/16 07:52:23;;;;;;;2.80;2.40;;;;;;;33.37;34.18;98894.19;5013922;28;42529;-81
2023/09/16 07:54:51;;;;;;;2.50;2.30;;;;;;;33.08;32.96;98923.41;5013821;28;40899;-78
2023/09/16 07:57:19;;;;;;;2.80;2.50;;;;;;;32.23;34.56;98910.06;5031619;28;42684;-78
2023/09/16 07:59:47;;;;;;;2.27;2.17;;;;;;;31.75;34.27;98919.13;5013572;28;43778;-79
2023/09/16 08:02:16;;;;;;;2.67;2.47;;;;;;;31.03;35.20;98893.38;5031730;28;42320;-79
2023/09/16 08:04:44;;;;;;;2.67;2.43;;;;;;;30.43;35.98;98900.41;5013072;28;41356;-79
2023/09/16 08:07:12;;;;;;;2.53;2.33;;;;;;;30.12;36.93;98895.81;5031375;28;41744;-77
2023/09/16 08:09:39;;;;;;;3.33;2.30;;;;;;;29.84;36.56;98854.38;5013162;28;43777;-80
2023/09/16 08:12:07;;;;;;;3.97;2.40;;;;;;;30.11;36.27;98891.41;5013702;28;42385;-79
2023/09/16 08:14:34;;;;;;;2.93;2.73;;;;;;;30.46;36.18;98899.16;5030741;28;42242;-81
2023/09/16 08:17:03;;;;;;;2.83;2.50;;;;;;;30.72;36.00;98893.50;5014372;28;42683;-81
2023/09/16 08:19:32;;;;;;;2.87;2.47;;;;;;;30.52;36.60;98881.88;5032146;28;42703;-80
2023/09/16 08:22:00;;;;;;;3.20;2.90;;;;;;;30.70;36.37;98890.13;5014217;28;42382;-81
2023/09/16 08:24:28;;;;;;;3.10;2.80;;;;;;;31.63;35.04;98895.47;4997831;28;39926;-78
2023/09/16 08:26:55;;;;;;;2.57;2.37;;;;;;;32.83;33.31;98893.47;4998016;28;41735;-78
2023/09/16 08:29:23;;;;;;;2.77;2.57;;;;;;;33.63;31.25;98921.06;5031842;28;44331;-78
2023/09/16 08:31:50;;;;;;;4.00;2.70;;;;;;;34.01;31.44;98917.75;4997805;28;41174;-80
2023/09/16 08:34:18;;;;;;;6.10;2.83;;;;;;;34.43;31.60;98918.28;4997462;28;40495;-81
2023/09/16 08:36:47;;;;;;;2.60;2.40;;;;;;;35.26;30.28;98924.88;5032015;28;41986;-82
2023/09/16 08:39:14;;;;;;;2.33;2.22;;;;;;;36.52;28.59;98939.34;5013715;28;41902;-80
2023/09/16 08:41:48;;;;;;;2.55;2.35;;;;;;;37.01;27.94;98947.50;4997251;28;41563;-79
2023/09/16 08:44:22;;;;;;;3.47;2.60;;;;;;;36.99;27.07;98949.69;5028530;28;40977;-79
2023/09/16 08:46:54;;;;;;;2.58;2.28;;;;;;;37.80;26.73;98944.69;5013021;28;42154;-79
2023/09/16 08:49:25;;;;;;;2.60;2.40;;;;;;;39.46;24.93;98928.53;5011709;28;43888;-79
2023/09/16 08:51:59;;;;;;;2.40;2.20;;;;;;;41.54;23.45;98960.44;5012897;28;42039;-79
2023/09/16 08:54:30;;;;;;;2.78;2.20;;;;;;;43.17;21.36;98968.13;5012460;28;40910;-80
2023/09/16 08:56:59;;;;;;;4.70;4.28;;;;;;;44.67;20.26;98955.22;4996445;28;40741;-81
2023/09/16 08:59:27;;;;;;;2.15;2.05;;;;;;;46.03;19.00;98969.50;5012761;28;43261;-79
2023/09/16 09:01:54;;;;;;;3.13;2.83;;;;;;;47.04;18.13;98971.06;5030508;28;43338;-81
2023/09/16 09:04:22;;;;;;;2.50;1.95;;;;;;;47.09;17.71;98940.03;5012933;28;41266;-80
2023/09/16 09:06:50;;;;;;;2.05;1.95;;;;;;;45.99;18.15;98943.31;4996199;28;40655;-82
2023/09/16 09:09:19;;;;;;;2.33;1.90;;;;;;;44.97;19.68;98945.28;4995775;28;42549;-81
2023/09/16 09:11:47;;;;;;;2.50;2.30;;;;;;;44.46;19.52;98940.94;5030434;28;42352;-79
2023/09/16 09:14:15;;;;;;;2.38;2.17;;;;;;;44.59;19.23;98947.63;4997180;28;39756;-80
2023/09/16 09:16:43;;;;;;;2.40;2.20;;;;;;;43.97;19.60;98952.94;4997978;28;41805;-82
2023/09/16 09:19:12;;;;;;;3.50;2.40;;;;;;;42.68;20.80;98943.59;5019173;28;43085;-83
2023/09/16 09:21:40;;;;;;;2.58;2.38;;;;;;;41.84;21.68;98934.22;5032817;28;42291;-79
2023/09/16 09:24:08;;;;;;;2.50;2.30;;;;;;;41.24;22.61;98925.44;4997577;28;40075;-79
2023/09/16 09:26:37;;;;;;;2.80;2.60;;;;;;;40.99;22.24;98934.00;5017048;28;42743;-79
2023/09/16 09:29:09;;;;;;;2.70;2.50;;;;;;;40.25;23.61;98918.44;5016780;28;42902;-79
2023/09/16 09:31:37;;;;;;;3.25;2.58;;;;;;;39.41;23.76;98906.34;5000717;28;41388;-78
2023/09/16 09:34:04;;;;;;;2.70;2.50;;;;;;;38.98;24.37;98910.59;4999787;28;40070;-80
2023/09/16 09:36:32;;;;;;;2.67;2.47;;;;;;;38.43;24.95;98899.22;5034400;28;41986;-82
2023/09/16 09:39:00;;;;;;;2.45;2.33;;;;;;;37.51;25.72;98894.50;4999683;28;43523;-82
2023/09/16 09:41:41;;;;;;;2.47;2.33;;;;;;;37.01;26.78;98887.59;5013082;28;42249;-79
2023/09/16 09:44:10;;;;;;;2.85;2.65;;;;;;;36.21;27.46;98877.53;5031846;28;41337;-81
2023/09/16 09:46:38;;;;;;;2.72;2.42;;;;;;;35.82;28.42;98859.47;4999356;28;40886;-82
2023/09/16 09:49:06;;;;;;;2.80;2.60;;;;;;;35.94;28.51;98858.25;5033351;28;43718;-80
2023/09/16 09:51:33;;;;;;;3.45;3.00;;;;;;;36.06;27.89;98840.69;5015518;28;43269;-81
2023/09/16 09:54:01;;;;;;;3.25;2.95;;;;;;;36.24;28.14;98856.88;5015206;28;40324;-79
2023/09/16 09:56:29;;;;;;;2.85;2.58;;;;;;;36.04;27.79;98865.78;5015326;28;41717;-80
2023/09/16 09:58:56;;;;;;;3.60;2.50;;;;;;;35.64;28.44;98855.13;5015124;28;41820;-82
2023/09/16 10:01:31;;;;;;;2.50;2.30;;;;;;;35.43;29.60;98854.03;5015254;28;42972;-80
2023/09/16 10:04:02;;;;;;;2.78;2.55;;;;;;;35.64;29.18;98861.47;5013426;28;42013;-80
2023/09/16 10:06:30;;;;;;;2.85;2.65;;;;;;;36.43;28.16;98852.66;5012193;28;41513;-80
2023/09/16 10:08:57;;;;;;;3.70;2.60;;;;;;;37.15;27.24;98876.06;5032570;28;42712;-81
2023/09/16 10:11:28;;;;;;;3.85;2.45;;;;;;;37.55;27.07;98872.69;4998778;28;41479;-80
2023/09/16 10:13:56;;;;;;;2.83;2.63;;;;;;;37.61;26.59;98871.59;5016068;28;41081;-79
2023/09/16 10:16:26;;;;;;;2.92;2.65;;;;;;;37.36;27.48;98867.63;5016117;28;43076;-81
2023/09/16 10:18:53;;;;;;;2.60;2.40;;;;;;;37.20;27.18;98863.16;4999232;28;43221;-78
2023/09/16 10:21:21;;;;;;;2.53;2.30;;;;;;;37.52;26.98;98870.47;5015571;28;41341;-80
2023/09/16 10:23:48;;;;;;;2.70;2.42;;;;;;;38.44;26.09;98872.41;5014330;28;41050;-81
2023/09/16 10:26:17;;;;;;;2.58;2.38;;;;;;;39.29;25.86;98861.50;5014761;28;41596;-82
2023/09/16 10:28:46;;;;;;;2.30;2.20;;;;;;;40.46;24.43;98875.56;4998122;28;41903;-80
2023/09/16 10:31:16;;;;;;;2.70;1.92;;;;;;;41.60;23.30;98892.53;4998570;28;42912;-79
2023/09/16 10:33:46;;;;;;;2.30;2.10;;;;;;;43.27;21.27;98894.66;5014538;28;40127;-80
2023/09/16 10:36:15;;;;;;;2.67;2.45;;;;;;;44.45;19.75;98886.22;5011406;28;42757;-79
2023/09/16 10:38:44;;;;;;;2.42;2.22;;;;;;;45.20;19.19;98904.16;5033041;28;42883;-82
2023/09/16 10:41:12;;;;;;;2.15;2.05;;;;;;;45.35;19.18;98895.31;5012601;28;42657;-83
2023/09/16 10:43:41;;;;;;;2.53;1.90;;;;;;;44.98;19.35;98899.41;5015727;28;40986;-82
2023/09/16 10:46:09;;;;;;;3.45;1.88;;;;;;;44.20;20.63;98870.88;4999148;28;41217;-80
2023/09/16 10:48:37;;;;;;;2.55;2.28;;;;;;;43.02;20.91;98875.59;5032365;28;43716;-83
2023/09/16 10:51:09;;;;;;;2.10;2.00;;;;;;;41.90;21.91;98849.56;5014500;28;42313;-80
2023/09/16 10:53:39;;;;;;;2.30;2.10;;;;;;;42.01;22.01;98867.78;5030250;28;42457;-80
2023/09/16 10:56:14;;;;;;;2.65;2.42;;;;;;;42.45;21.83;98869.34;4998225;28;41476;-81
2023/09/16 10:58:46;;;;;;;2.10;2.00;;;;;;;43.12;20.99;98865.06;5030438;28;42964;-82
2023/09/16 11:01:19;;;;;;;2.60;1.92;;;;;;;43.42;20.22;98860.03;5029225;28;44951;-83
2023/09/16 11:03:53;;;;;;;2.03;1.92;;;;;;;43.02;21.23;98831.00;5012444;28;41187;-81
2023/09/16 11:06:22;;;;;;;2.38;2.28;;;;;;;42.81;21.16;98852.84;5029775;28;41874;-82
2023/09/16 11:08:50;;;;;;;2.42;2.30;;;;;;;43.08;21.67;98858.47;4989875;28;41787;-84
2023/09/16 11:11:18;;;;;;;2.30;2.10;;;;;;;43.46;20.73;98864.69;4997934;28;42396;-81
2023/09/16 11:13:46;;;;;;;2.08;1.85;;;;;;;43.87;20.30;98869.41;5032629;28;40835;-81
2023/09/16 11:16:14;;;;;;;2.47;2.38;;;;;;;44.02;19.93;98860.69;4999021;28;42324;-80
2023/09/16 11:18:43;;;;;;;3.08;2.20;;;;;;;44.05;20.29;98862.84;5014799;28;41936;-80
2023/09/16 11:21:15;;;;;;;2.35;1.92;;;;;;;44.21;19.62;98846.56;5015316;28;42286;-79
2023/09/16 11:23:47;;;;;;;4.68;2.03;;;;;;;44.46;19.88;98850.72;5013142;28;41787;-80
2023/09/16 11:26:18;;;;;;;2.17;2.08;;;;;;;45.20;19.28;98856.59;4998365;28;42189;-82
2023/09/16 11:28:45;;;;;;;2.40;2.20;;;;;;;44.98;19.15;98824.75;5014804;28;43282;-79
2023/09/16 11:31:13;;;;;;;2.40;2.20;;;;;;;44.34;19.73;98835.34;5032979;28;42388;-80
2023/09/16 11:33:41;;;;;;;2.47;2.28;;;;;;;43.99;20.93;98839.00;5015271;28;41081;-80
2023/09/16 11:36:14;;;;;;;1.95;1.85;;;;;;;45.02;19.67;98848.09;5014887;28;42744;-80
2023/09/16 11:38:57;;;;;;;2.22;2.10;;;;;;;46.87;17.72;98856.91;5029909;28;42735;-80
2023/09/16 11:41:25;;;;;;;2.30;2.10;;;;;;;48.53;17.49;98846.00;5011015;28;42501;-84